Time;durP1;ratioP1;P1;durP2;ratioP2;P2;SDS_P1;SDS_P2;PMS_P1;PMS_P2;Temp;Humidity;BMP_temperature;BMP_pressure;BME280_temperature;BME280_humidity;BME280_pressure;Samples;Min_cycle;Max_cycle;Signal;HPM_P1;HPM_P2
2021/05/01 00:00:55;;;;;;;10.90;7.37;;;;;;;13.35;66.39;99109.13;4423000;32;33965;-96
2021/05/01 00:03:29;;;;;;;10.15;6.82;;;;;;;13.12;67.51;99096.97;4387521;32;33483;-87
2021/05/01 00:06:01;;;;;;;9.98;7.03;;;;;;;13.17;67.68;99096.31;4414918;32;35098;-87
2021/05/01 00:08:34;;;;;;;9.70;6.55;;;;;;;13.62;65.64;99103.50;4397795;32;34816;-87
2021/05/01 00:11:07;;;;;;;11.32;6.60;;;;;;;13.59;64.27;99100.19;4403038;32;33651;-96
2021/05/01 00:13:41;;;;;;;9.40;6.47;;;;;;;13.41;64.92;99089.25;4385802;32;34274;-87
2021/05/01 00:16:22;;;;;;;10.85;6.12;;;;;;;13.49;64.50;99086.28;4409328;32;34977;-87
2021/05/01 00:18:55;;;;;;;9.43;6.60;;;;;;;13.53;64.18;99092.94;4422494;32;34451;-96
2021/05/01 00:21:28;;;;;;;10.02;6.53;;;;;;;13.58;64.20;99095.78;4394314;32;35304;-87
2021/05/01 00:24:06;;;;;;;10.20;6.90;;;;;;;13.17;66.37;99093.59;4401582;32;33354;-86
2021/05/01 00:26:41;;;;;;;13.38;7.43;;;;;;;13.38;65.51;99095.13;4412659;32;32063;-87
2021/05/01 00:29:15;;;;;;;9.60;7.60;;;;;;;12.98;66.59;99082.69;4904940;26;33601;-86
2021/05/01 00:32:01;;;;;;;16.27;7.80;;;;;;;13.31;66.13;99091.59;4554991;26;32305;-88
2021/05/01 00:38:21;;;;;;;9.90;6.47;;;;;;;13.17;66.81;99089.03;4730633;27;31179;31
2021/05/01 00:40:55;;;;;;;9.50;6.82;;;;;;;13.23;66.13;99090.84;4302061;33;34022;-87
2021/05/01 00:43:28;;;;;;;12.77;7.35;;;;;;;13.13;66.04;99087.78;4294680;33;34586;-96
2021/05/01 00:46:06;;;;;;;18.90;6.55;;;;;;;12.84;67.06;99100.91;4308011;33;33549;-96
2021/05/01 00:48:43;;;;;;;11.00;6.72;;;;;;;13.16;65.94;99090.06;4309469;33;34342;-96
2021/05/01 00:52:04;;;;;;;9.45;6.82;;;;;;;13.22;65.37;99086.47;4037741;33;35154;-88
2021/05/01 00:54:37;;;;;;;10.07;6.95;;;;;;;13.10;65.86;99079.25;4318138;33;35117;-96
2021/05/01 00:57:36;;;;;;;8.52;6.55;;;;;;;13.28;64.79;99081.19;4087030;33;37050;-96
2021/05/01 01:00:30;;;;;;;11.15;6.57;;;;;;;12.97;65.81;99089.13;4294994;33;33674;-96
2021/05/01 01:03:16;;;;;;;8.82;6.82;;;;;;;12.57;67.74;99089.38;4282801;33;33826;-88
2021/05/01 01:09:32;;;;;;;10.05;7.07;;;;;;;12.46;68.02;99084.66;4306597;33;36564;-96
2021/05/01 01:12:10;;;;;;;12.98;7.93;;;;;;;12.39;68.46;99100.91;4293332;33;33246;-94
2021/05/01 01:15:03;;;;;;;12.70;8.07;;;;;;;12.67;67.67;99102.47;4285682;33;33369;-95
2021/05/01 01:18:03;;;;;;;12.52;7.70;;;;;;;12.54;68.54;99101.50;4298679;33;33393;-89
2021/05/01 01:21:08;;;;;;;9.52;7.28;;;;;;;12.67;68.30;99106.00;4338047;27;33601;-87
2021/05/01 01:23:59;;;;;;;9.02;7.32;;;;;;;12.71;68.03;99103.72;4305354;33;36267;-87
2021/05/01 01:26:37;;;;;;;11.98;7.45;;;;;;;12.92;67.16;99101.69;4318000;33;34067;-96
2021/05/01 01:29:18;;;;;;;10.88;7.25;;;;;;;12.65;68.48;99101.84;4306593;33;33616;-87
2021/05/01 01:31:51;;;;;;;10.27;7.87;;;;;;;12.58;69.70;99087.50;4310516;33;35347;-88
2021/05/01 01:34:34;;;;;;;11.57;8.60;;;;;;;12.77;69.88;99086.56;4310232;33;33244;-96
2021/05/01 01:40:35;;;;;;;9.23;6.85;;;;;;;13.21;68.97;99090.22;4394402;27;36375;-94
2021/05/01 01:43:23;;;;;;;;;;;;;;;13.69;67.19;99087.97;4564415;27;34242;31
2021/05/01 01:46:00;;;;;;;12.40;7.75;;;;;;;13.62;67.49;99087.19;4818852;27;31704;-86
2021/05/01 01:49:02;;;;;;;12.33;6.83;;;;;;;13.54;67.65;99085.59;4434617;27;32582;31
2021/05/01 01:54:56;;;;;;;;;;;;;;;13.42;68.72;99085.50;4704059;27;20132;-86
2021/05/01 01:57:55;;;;;;;12.85;8.23;;;;;;;13.66;67.85;99088.41;4508529;27;36034;-86
2021/05/01 02:00:57;;;;;;;12.27;8.40;;;;;;;13.56;69.65;99097.06;4380972;27;34203;-86
2021/05/01 02:03:32;;;;;;;10.90;8.07;;;;;;;13.11;71.11;99089.88;4378253;27;33553;-86
2021/05/01 02:06:12;;;;;;;12.27;8.18;;;;;;;13.24;70.15;99084.34;4312417;33;33481;-89
2021/05/01 02:09:02;;;;;;;10.98;7.47;;;;;;;13.25;69.89;99090.62;4302576;33;34417;-85
2021/05/01 02:11:35;;;;;;;10.25;7.53;;;;;;;13.74;68.01;99091.69;4325609;33;33668;-86
2021/05/01 02:20:35;;;;;;;9.45;7.22;;;;;;;13.51;67.83;99084.16;4672546;27;35835;31
2021/05/01 02:23:17;;;;;;;13.25;8.35;;;;;;;13.76;67.43;99081.41;4297239;27;34365;31
2021/05/01 02:26:10;;;;;;;12.73;8.07;;;;;;;13.74;67.57;99088.13;4360809;27;34546;31
2021/05/01 02:28:48;;;;;;;11.88;7.10;;;;;;;13.86;67.34;99097.22;4304814;33;34300;-93
2021/05/01 02:31:39;;;;;;;11.65;7.68;;;;;;;13.99;66.80;99101.66;4256937;33;34355;-85
2021/05/01 02:34:13;;;;;;;10.32;7.22;;;;;;;13.88;67.08;99095.09;4264250;33;34780;-96
2021/05/01 02:36:50;;;;;;;12.68;8.00;;;;;;;13.64;67.70;99104.94;4260095;33;35710;-85
2021/05/01 02:39:23;;;;;;;10.50;7.80;;;;;;;13.74;67.61;99090.84;4263209;33;33626;-85
2021/05/01 02:42:07;;;;;;;12.37;8.15;;;;;;;13.62;68.12;99084.50;4263925;33;33736;-96
2021/05/01 02:44:50;;;;;;;13.43;8.35;;;;;;;13.42;68.98;99085.50;4261397;33;33095;-85
2021/05/01 02:47:29;;;;;;;12.50;7.82;;;;;;;13.38;69.20;99073.41;4266233;33;33639;-96
2021/05/01 02:50:09;;;;;;;11.68;7.53;;;;;;;13.55;68.59;99060.94;4267656;33;32956;-85
2021/05/01 02:52:48;;;;;;;10.98;7.70;;;;;;;13.72;68.07;99053.03;4263953;33;35080;-96
2021/05/01 02:55:27;;;;;;;10.20;7.45;;;;;;;13.84;67.27;99050.41;4263144;33;34404;-85
2021/05/01 02:58:01;;;;;;;9.88;7.50;;;;;;;13.64;68.11;99052.50;4556248;27;34510;-85
2021/05/01 03:00:42;;;;;;;11.50;7.85;;;;;;;13.29;69.79;99044.88;4520734;27;34433;31
2021/05/01 03:03:15;;;;;;;13.62;8.18;;;;;;;13.59;68.98;99064.88;4487124;28;33173;-85
2021/05/01 03:05:48;;;;;;;13.27;7.50;;;;;;;13.34;69.73;99061.38;4402436;28;33434;-85
2021/05/01 03:08:21;;;;;;;11.30;7.78;;;;;;;13.90;68.17;99065.81;4399713;27;33597;-89
2021/05/01 03:11:08;;;;;;;10.02;7.50;;;;;;;13.98;67.94;99070.09;4301693;33;35224;-96
2021/05/01 03:13:42;;;;;;;14.63;7.68;;;;;;;13.70;69.60;99065.22;4286486;33;34729;-85
2021/05/01 03:16:14;;;;;;;14.15;8.23;;;;;;;13.70;70.07;99065.22;4307602;33;34185;-86
2021/05/01 03:18:47;;;;;;;13.93;8.25;;;;;;;14.01;68.77;99071.56;4318803;33;33833;-85
2021/05/01 03:21:20;;;;;;;12.95;8.05;;;;;;;14.05;68.71;99067.34;4329418;33;33278;-86
2021/05/01 03:23:54;;;;;;;10.00;7.97;;;;;;;13.76;69.54;99070.56;4352850;32;34469;-85
2021/05/01 03:26:27;;;;;;;12.05;6.87;;;;;;;14.01;68.61;99066.97;4367603;32;33638;-86
2021/05/01 03:28:59;;;;;;;12.43;7.78;;;;;;;13.95;68.92;99062.41;4366557;32;33689;-85
2021/05/01 03:31:33;;;;;;;13.57;7.35;;;;;;;13.92;69.20;99063.72;4350381;32;35980;-85
2021/05/01 03:34:05;;;;;;;11.12;7.28;;;;;;;14.26;67.92;99057.88;4340859;32;34241;-96
2021/05/01 03:36:39;;;;;;;9.77;7.15;;;;;;;14.21;68.35;99063.19;4320098;32;36956;-95
2021/05/01 03:39:15;;;;;;;12.27;6.68;;;;;;;14.21;68.26;99057.75;4336800;32;34327;-85
2021/05/01 03:41:49;;;;;;;9.32;7.03;;;;;;;14.10;68.60;99060.16;4338628;32;34430;-96
2021/05/01 03:44:24;;;;;;;17.05;7.50;;;;;;;14.35;67.60;99051.06;4331456;33;33134;-95
2021/05/01 03:46:58;;;;;;;10.07;7.00;;;;;;;14.64;66.21;99068.50;4324405;32;33936;-94
2021/05/01 03:49:31;;;;;;;10.38;7.07;;;;;;;14.03;68.79;99074.88;4311933;33;35778;-86
2021/05/01 03:52:04;;;;;;;12.13;7.45;;;;;;;14.16;68.43;99074.75;4335916;32;33527;-94
2021/05/01 03:54:37;;;;;;;10.63;7.05;;;;;;;14.34;67.77;99071.19;4312923;33;33604;-96
2021/05/01 03:57:10;;;;;;;10.20;7.30;;;;;;;14.43;67.93;99061.66;4330493;32;34717;-96
2021/05/01 03:59:43;;;;;;;9.52;7.37;;;;;;;14.17;68.76;99065.50;4336215;32;35481;-85
2021/05/01 04:02:17;;;;;;;11.98;6.80;;;;;;;13.96;69.53;99069.50;4361586;32;34598;-96
2021/05/01 04:04:51;;;;;;;12.63;6.70;;;;;;;14.33;68.22;99085.00;4338355;32;35663;-93
2021/05/01 04:07:23;;;;;;;10.60;6.28;;;;;;;14.39;68.29;99084.06;4326724;32;34656;-96
2021/05/01 04:09:58;;;;;;;9.88;6.87;;;;;;;14.64;67.43;99087.53;4338923;32;36652;-95
2021/05/01 04:12:30;;;;;;;10.40;7.07;;;;;;;14.80;67.14;99096.09;4338006;32;33763;-96
2021/05/01 04:15:04;;;;;;;10.00;6.60;;;;;;;14.71;67.39;99097.50;4324168;33;33613;-85
2021/05/01 04:17:37;;;;;;;10.30;6.97;;;;;;;14.81;67.29;99093.16;4312469;33;34264;-85
2021/05/01 04:20:10;;;;;;;9.77;6.50;;;;;;;14.52;68.80;99089.34;4324166;32;35237;-96
2021/05/01 04:22:43;;;;;;;11.88;6.37;;;;;;;14.76;67.80;99092.19;4324195;32;34715;-84
2021/05/01 04:25:16;;;;;;;10.38;6.87;;;;;;;14.83;68.04;99095.63;4328807;32;33137;-96
2021/05/01 04:27:48;;;;;;;12.50;6.10;;;;;;;15.15;67.04;99096.22;4339006;32;34771;-84
2021/05/01 04:30:22;;;;;;;7.05;6.30;;;;;;;15.16;66.92;99089.72;4351161;32;33641;-96
2021/05/01 04:32:54;;;;;;;10.43;6.70;;;;;;;15.43;66.40;99093.91;4331378;33;34218;-96
2021/05/01 04:35:27;;;;;;;7.82;5.75;;;;;;;15.50;66.35;99094.63;4352306;32;32890;-96
2021/05/01 04:38:00;;;;;;;7.03;5.53;;;;;;;15.30;67.54;99095.78;4324192;33;35512;-95
2021/05/01 04:40:34;;;;;;;9.60;6.62;;;;;;;15.47;67.12;99095.09;4339950;32;34203;-96
2021/05/01 04:43:07;;;;;;;10.88;6.85;;;;;;;15.49;67.15;99092.94;4334725;33;34616;-94
2021/05/01 04:45:41;;;;;;;10.48;6.25;;;;;;;15.80;66.32;99094.53;4317398;33;34049;-95
2021/05/01 04:48:14;;;;;;;9.07;6.03;;;;;;;15.82;66.70;99097.88;4322366;32;34768;-96
2021/05/01 04:50:51;;;;;;;9.18;6.85;;;;;;;15.95;66.49;99107.69;4322539;33;34318;-86
2021/05/01 04:53:24;;;;;;;8.60;5.30;;;;;;;16.13;66.39;99108.63;4334951;33;33640;-86
2021/05/01 04:55:57;;;;;;;12.00;6.03;;;;;;;16.20;66.08;99114.78;4337375;33;33979;-96
2021/05/01 04:58:31;;;;;;;9.82;5.97;;;;;;;16.05;66.46;99116.09;4323016;33;33129;-86
2021/05/01 05:01:04;;;;;;;8.65;6.22;;;;;;;16.38;65.21;99116.53;4323688;33;33480;-86
2021/05/01 05:03:42;;;;;;;8.13;6.43;;;;;;;16.55;64.87;99122.03;4364522;27;33300;-96
2021/05/01 05:07:07;;;;;;;7.62;5.30;;;;;;;16.69;64.10;99117.97;4347181;27;33196;-91
2021/05/01 05:09:40;;;;;;;6.47;5.20;;;;;;;16.79;63.91;99128.25;4329343;33;31690;-96
2021/05/01 05:12:12;;;;;;;6.90;4.70;;;;;;;16.93;62.40;99118.72;4312996;33;33855;-96
2021/05/01 05:14:44;;;;;;;9.85;6.12;;;;;;;17.06;62.24;99123.03;4301022;33;35465;-84
2021/05/01 05:17:18;;;;;;;8.75;5.55;;;;;;;17.20;62.19;99128.19;4313981;33;33008;-95
2021/05/01 05:19:50;;;;;;;12.95;5.20;;;;;;;17.31;62.12;99126.50;4319140;33;34234;-85
2021/05/01 05:22:23;;;;;;;8.82;4.65;;;;;;;17.43;61.13;99135.44;4292523;33;32540;-85
2021/05/01 05:24:55;;;;;;;7.00;5.30;;;;;;;17.49;61.32;99136.38;4300635;33;34746;-96
2021/05/01 05:27:29;;;;;;;7.35;4.65;;;;;;;17.74;60.70;99128.56;4316796;33;34288;-96
2021/05/01 05:30:05;;;;;;;6.57;5.12;;;;;;;17.80;60.65;99116.63;4321403;33;33933;-96
2021/05/01 05:32:38;;;;;;;7.72;5.07;;;;;;;17.83;61.65;99120.78;4328402;33;36217;-87
2021/05/01 05:35:11;;;;;;;6.37;4.62;;;;;;;18.21;60.84;99118.34;4332307;33;35744;-88
2021/05/01 05:37:44;;;;;;;6.10;4.40;;;;;;;17.88;61.52;99112.66;4337856;33;33122;-96
2021/05/01 05:40:19;;;;;;;9.52;4.87;;;;;;;17.87;62.46;99123.84;4310099;33;32016;-84
2021/05/01 05:42:52;;;;;;;8.27;4.85;;;;;;;18.31;61.47;99132.97;4321460;33;34753;-96
2021/05/01 05:45:26;;;;;;;10.30;4.80;;;;;;;18.19;61.67;99135.00;4296342;33;34084;-95
2021/05/01 05:48:00;;;;;;;9.25;5.10;;;;;;;18.51;60.06;99131.59;4309057;33;34368;-85
2021/05/01 05:50:32;;;;;;;9.32;5.32;;;;;;;18.52;59.23;99133.25;4320539;33;33722;-84
2021/05/01 05:53:05;;;;;;;8.80;3.45;;;;;;;18.67;56.24;99127.13;4332986;33;33479;-84
2021/05/01 05:55:38;;;;;;;6.28;3.20;;;;;;;18.65;54.64;99132.87;4334316;33;33600;-96
2021/05/01 05:58:12;;;;;;;6.75;2.80;;;;;;;18.46;54.82;99131.53;4308043;33;33606;-84
2021/05/01 06:00:47;;;;;;;8.00;2.58;;;;;;;18.55;54.96;99131.87;4321833;33;33631;-89
2021/05/01 06:03:24;;;;;;;4.32;2.50;;;;;;;18.18;54.25;99147.84;4367674;27;34798;-84
2021/05/01 06:06:02;;;;;;;6.18;2.65;;;;;;;18.27;54.70;99150.97;4309842;33;33708;-96
2021/05/01 06:08:57;;;;;;;5.87;2.70;;;;;;;18.23;54.17;99152.53;4293137;33;35428;-94
2021/05/01 06:11:30;;;;;;;4.78;2.60;;;;;;;18.44;53.95;99148.19;4332491;33;34287;-84
2021/05/01 06:14:07;;;;;;;6.62;2.37;;;;;;;18.21;54.11;99148.41;4328066;33;33594;-96
2021/05/01 06:16:43;;;;;;;5.87;2.10;;;;;;;18.12;54.39;99132.44;4306997;33;32435;-95
2021/05/01 06:19:44;;;;;;;4.50;2.72;;;;;;;18.43;54.13;99135.59;4285996;33;33466;-96
2021/05/01 06:22:42;;;;;;;5.25;2.20;;;;;;;18.97;52.57;99134.88;4296692;33;34054;-96
2021/05/01 06:25:16;;;;;;;5.43;2.60;;;;;;;19.20;52.20;99128.25;4277016;33;34669;-96
2021/05/01 06:27:52;;;;;;;5.65;3.30;;;;;;;19.18;52.13;99124.97;4262129;33;33766;-96
2021/05/01 06:30:27;;;;;;;5.85;2.62;;;;;;;19.82;50.72;99137.06;4280199;33;35110;-96
2021/05/01 06:33:02;;;;;;;5.85;2.47;;;;;;;19.67;50.97;99142.38;4287833;33;35218;-96
2021/05/01 06:35:53;;;;;;;6.87;2.45;;;;;;;19.67;50.58;99136.88;4301005;33;33807;-96
2021/05/01 06:38:29;;;;;;;4.82;2.47;;;;;;;20.01;51.47;99131.13;4302607;33;34291;-96
2021/05/01 06:41:11;;;;;;;6.15;3.03;;;;;;;20.25;51.35;99137.03;4298248;33;33021;-96
2021/05/01 06:44:06;;;;;;;7.70;3.83;;;;;;;20.19;51.44;99152.63;4394417;27;36621;-96
2021/05/01 06:46:53;;;;;;;8.30;3.97;;;;;;;20.12;50.27;99149.31;4312554;33;35046;-96
2021/05/01 06:49:53;;;;;;;5.37;4.05;;;;;;;20.17;51.25;99162.25;4310873;33;33881;-96
2021/05/01 06:52:54;;;;;;;7.10;4.03;;;;;;;20.23;50.41;99147.47;4417785;27;34330;-96
2021/05/01 06:59:27;;;;;;;5.35;4.55;;;;;;;20.17;52.34;99143.84;4543958;27;20160;-96
2021/05/01 07:03:03;;;;;;;6.53;4.57;;;;;;;20.33;50.20;99139.28;4773779;27;31924;-92
2021/05/01 07:06:30;;;;;;;;;;;;;;;19.99;50.12;99138.81;4532579;27;20155;-97
2021/05/01 07:09:11;;;;;;;6.15;4.70;;;;;;;20.35;49.71;99133.53;4338761;33;34247;-96
2021/05/01 07:12:07;;;;;;;8.85;6.12;;;;;;;20.46;51.75;99122.34;4285628;33;32596;-96
2021/05/01 07:14:45;;;;;;;7.62;5.62;;;;;;;20.84;50.62;99119.50;4317376;28;35040;-96
2021/05/01 07:17:40;;;;;;;6.97;5.82;;;;;;;21.05;50.02;99117.63;4300309;33;32620;-96
2021/05/01 07:20:27;;;;;;;9.25;6.05;;;;;;;21.06;47.85;99123.91;4329354;33;35094;-96
2021/05/01 07:23:15;;;;;;;10.10;5.03;;;;;;;21.13;48.27;99135.47;4275604;33;35107;-96
2021/05/01 07:26:01;;;;;;;7.87;5.57;;;;;;;20.93;48.48;99134.34;4312931;33;35516;-95
2021/05/01 07:28:38;;;;;;;11.60;5.97;;;;;;;20.95;48.45;99139.56;4318572;33;34101;-96
2021/05/01 07:31:24;;;;;;;7.07;5.32;;;;;;;20.79;49.85;99141.41;4303080;33;34177;-96
2021/05/01 07:34:23;;;;;;;7.22;4.70;;;;;;;20.49;52.42;99145.66;4350634;32;34944;-96
2021/05/01 07:36:56;;;;;;;6.37;4.60;;;;;;;21.10;48.50;99147.81;4311503;32;34119;-96
2021/05/01 07:39:42;;;;;;;7.72;5.18;;;;;;;21.10;47.50;99147.81;4254366;33;32247;-96
2021/05/01 07:42:16;;;;;;;8.43;5.75;;;;;;;21.15;47.26;99147.00;4285919;33;34647;-94
2021/05/01 07:44:56;;;;;;;7.12;4.87;;;;;;;21.30;47.59;99137.97;4243773;33;36844;-85
2021/05/01 07:47:29;;;;;;;12.93;4.80;;;;;;;21.45;47.52;99137.16;4275215;33;34237;-84
2021/05/01 07:50:04;;;;;;;8.10;4.55;;;;;;;21.68;49.15;99142.16;4286900;33;34549;-85
2021/05/01 07:52:39;;;;;;;6.85;4.87;;;;;;;21.62;46.03;99137.75;4273729;33;34240;-85
2021/05/01 07:55:14;;;;;;;7.43;4.65;;;;;;;21.83;46.13;99143.25;4276353;33;31994;-90
2021/05/01 07:57:54;;;;;;;9.35;4.60;;;;;;;21.71;46.85;99145.44;4281041;33;34044;-96
2021/05/01 08:00:28;;;;;;;5.90;4.50;;;;;;;22.13;44.57;99136.88;4279122;33;33567;-87
2021/05/01 08:03:02;;;;;;;4.93;4.40;;;;;;;22.14;45.70;99137.69;4289175;33;33714;-95
2021/05/01 08:05:35;;;;;;;7.25;4.55;;;;;;;22.16;47.09;99136.31;4264126;33;35499;-91
2021/05/01 08:08:08;;;;;;;6.28;5.00;;;;;;;22.71;44.50;99143.84;4279143;33;33460;-87
2021/05/01 08:10:42;;;;;;;4.65;3.83;;;;;;;22.90;42.89;99149.56;4270556;33;34009;-96
2021/05/01 08:13:33;;;;;;;4.47;3.72;;;;;;;22.82;44.83;99152.91;4297449;33;32965;-96
2021/05/01 08:16:06;;;;;;;6.07;4.30;;;;;;;23.21;42.97;99149.41;4302391;33;34803;-96
2021/05/01 08:19:01;;;;;;;6.60;4.15;;;;;;;23.30;42.87;99150.47;4271807;33;36905;-96
2021/05/01 08:21:35;;;;;;;6.30;3.70;;;;;;;23.14;43.28;99149.72;4298077;33;32304;-92
2021/05/01 08:24:12;;;;;;;5.50;3.58;;;;;;;22.85;41.32;99152.34;4291267;33;33589;-96
2021/05/01 08:26:45;;;;;;;8.00;3.20;;;;;;;22.51;46.49;99140.06;4296542;33;35470;-91
2021/05/01 08:29:41;;;;;;;4.62;3.12;;;;;;;22.96;44.49;99153.94;4242801;33;34578;-88
2021/05/01 08:32:36;;;;;;;5.87;4.10;;;;;;;23.87;41.02;99150.03;4274654;33;34011;-96
2021/05/01 08:35:35;;;;;;;3.65;2.97;;;;;;;23.59;40.23;99160.72;4302985;33;32735;-88
2021/05/01 08:38:08;;;;;;;3.95;2.50;;;;;;;23.80;41.12;99153.94;4334244;33;33799;-91
2021/05/01 08:40:41;;;;;;;101.75;8.52;;;;;;;23.77;40.10;99140.72;4308176;33;33540;-94
2021/05/01 08:43:16;;;;;;;6.07;2.25;;;;;;;24.66;43.63;99149.78;4299994;33;35906;-94
2021/05/01 08:45:53;;;;;;;6.35;2.70;;;;;;;25.26;41.20;99151.19;4307572;33;33859;-95
2021/05/01 08:48:27;;;;;;;15.02;3.00;;;;;;;25.47;37.29;99155.31;4307610;33;34077;-87
2021/05/01 08:51:01;;;;;;;19.50;3.53;;;;;;;25.24;37.37;99150.66;4320711;33;34403;-86
2021/05/01 08:53:34;;;;;;;3.97;2.25;;;;;;;24.87;36.86;99155.06;4318989;33;33720;-86
2021/05/01 08:56:07;;;;;;;40.40;4.60;;;;;;;25.39;42.58;99167.06;4320665;33;34889;-96
2021/05/01 08:58:39;;;;;;;3.80;2.60;;;;;;;25.61;42.73;99162.84;4308464;33;34283;-94
2021/05/01 09:01:13;;;;;;;3.97;1.92;;;;;;;25.71;40.64;99162.69;4321781;33;34959;-95
2021/05/01 09:03:48;;;;;;;9.55;3.37;;;;;;;25.90;37.11;99151.56;4320267;33;33866;-88
2021/05/01 09:06:22;;;;;;;7.30;2.72;;;;;;;26.00;42.51;99153.34;4320258;33;34581;-86
2021/05/01 09:08:57;;;;;;;5.30;2.83;;;;;;;26.48;39.06;99150.22;4319300;33;34280;-96
2021/05/01 09:11:33;;;;;;;5.05;2.95;;;;;;;26.48;35.46;99150.22;4297561;33;34476;-92
2021/05/01 09:14:18;;;;;;;6.75;2.42;;;;;;;26.90;35.77;99142.75;4328382;33;34329;-94
2021/05/01 09:17:06;;;;;;;16.42;6.70;;;;;;;26.91;35.05;99138.81;4319911;33;33659;-89
2021/05/01 09:19:41;;;;;;;23.20;8.05;;;;;;;27.18;39.23;99142.66;4316521;33;34718;-90
2021/05/01 09:22:14;;;;;;;5.32;3.80;;;;;;;27.38;41.25;99135.88;4319259;33;33650;-96
2021/05/01 09:24:47;;;;;;;5.87;3.58;;;;;;;27.31;35.91;99136.25;4306205;33;34629;-95
2021/05/01 09:27:21;;;;;;;32.13;11.30;;;;;;;27.54;37.36;99141.03;4308737;33;33662;-95
2021/05/01 09:29:55;;;;;;;4.95;3.62;;;;;;;28.10;44.04;99147.97;4291776;33;33293;-96
2021/05/01 09:32:28;;;;;;;4.30;3.17;;;;;;;28.20;34.21;99137.72;4315811;33;33676;-93
2021/05/01 09:35:01;;;;;;;6.12;3.90;;;;;;;28.29;33.75;99136.59;4319469;33;34048;-96
2021/05/01 09:38:01;;;;;;;4.30;3.90;;;;;;;28.75;35.16;99126.16;4327104;33;33602;-92
2021/05/01 09:40:37;;;;;;;17.70;8.55;;;;;;;28.41;32.46;99124.06;4321416;33;35421;-88
2021/05/01 09:43:20;;;;;;;14.87;7.65;;;;;;;29.02;34.99;99125.06;4322049;33;33530;-96
2021/05/01 09:46:19;;;;;;;6.15;3.80;;;;;;;29.06;34.47;99120.47;4326624;27;35148;-88
2021/05/01 09:49:21;;;;;;;5.90;2.97;;;;;;;28.99;31.35;99125.69;4333555;33;33680;-92
2021/05/01 09:51:56;;;;;;;6.22;3.45;;;;;;;28.27;31.98;99130.56;4322763;33;33262;-94
2021/05/01 09:54:40;;;;;;;5.00;2.20;;;;;;;28.20;31.88;99118.28;4332255;33;34281;-95
2021/05/01 09:57:18;;;;;;;6.28;2.72;;;;;;;27.73;32.22;99121.44;4317258;33;34434;-95
2021/05/01 09:59:55;;;;;;;5.87;2.80;;;;;;;27.98;32.27;99112.44;4310833;33;33929;-91
2021/05/01 10:02:36;;;;;;;3.15;2.10;;;;;;;27.72;34.06;99108.69;4319108;33;34612;-94
2021/05/01 10:05:12;;;;;;;5.60;2.08;;;;;;;28.28;33.76;99112.75;4302689;33;32606;-85
2021/05/01 10:07:52;;;;;;;2.42;1.73;;;;;;;27.59;32.15;99104.81;4333009;33;33231;-95
2021/05/01 10:10:39;;;;;;;4.82;1.60;;;;;;;27.95;32.24;99092.78;4298701;33;36676;-88
2021/05/01 10:13:15;;;;;;;3.22;1.75;;;;;;;27.15;34.11;99096.16;4304023;33;34356;-86
2021/05/01 10:15:48;;;;;;;4.80;2.25;;;;;;;27.92;32.98;99083.16;4347167;33;33647;-88
2021/05/01 10:18:20;;;;;;;4.82;2.25;;;;;;;27.79;33.95;99067.41;4321824;33;32969;-87
2021/05/01 10:20:53;;;;;;;3.55;2.10;;;;;;;27.83;33.51;99069.22;4334540;33;35430;-93
2021/05/01 10:23:26;;;;;;;6.22;2.37;;;;;;;27.37;33.41;99066.84;4334940;33;34787;-93
2021/05/01 10:26:12;;;;;;;4.40;2.12;;;;;;;27.57;34.15;99071.03;4327956;33;33960;-92
2021/05/01 10:28:50;;;;;;;3.30;2.45;;;;;;;27.78;32.22;99063.00;4310107;33;33842;-96
2021/05/01 10:31:53;;;;;;;3.28;2.12;;;;;;;28.27;31.91;99061.09;4321069;33;33261;-92
2021/05/01 10:34:27;;;;;;;6.35;2.58;;;;;;;28.31;33.86;99062.09;4344595;33;33673;-92
2021/05/01 10:37:04;;;;;;;5.20;2.53;;;;;;;28.32;31.98;99058.19;4324104;33;33735;-94
2021/05/01 10:39:52;;;;;;;22.80;5.15;;;;;;;28.27;32.15;99054.75;4333928;33;34236;-92
2021/05/01 10:42:30;;;;;;;6.32;3.20;;;;;;;28.41;32.21;99071.28;4323858;33;33551;-86
2021/05/01 10:45:06;;;;;;;10.20;3.90;;;;;;;28.28;34.10;99062.75;4339725;33;33860;-94
2021/05/01 10:48:06;;;;;;;12.93;5.00;;;;;;;28.85;34.04;99058.31;4319792;33;33421;-96
2021/05/01 10:51:19;;;;;;;20.02;7.45;;;;;;;28.84;38.09;99057.47;4273965;33;36017;-91
2021/05/01 10:54:18;;;;;;;13.65;5.25;;;;;;;29.06;32.72;99048.16;4302131;33;33641;-88
2021/05/01 10:56:55;;;;;;;8.07;4.25;;;;;;;28.61;33.39;99039.31;4290509;33;34816;-91
2021/05/01 11:00:15;;;;;;;6.43;2.80;;;;;;;28.63;34.25;99046.19;4292223;33;34232;-96
2021/05/01 11:03:03;;;;;;;5.75;2.20;;;;;;;28.74;40.28;99035.56;4290497;33;33176;-96
2021/05/01 11:05:53;;;;;;;24.17;9.13;;;;;;;28.99;40.49;99038.69;4273007;33;34398;-88
2021/05/01 11:08:44;;;;;;;2.83;1.55;;;;;;;29.64;31.14;99039.63;4300250;33;34577;-87
2021/05/01 11:11:42;;;;;;;8.02;4.68;;;;;;;29.16;30.40;99040.63;4237913;33;35354;-87
2021/05/01 11:14:16;;;;;;;5.65;2.65;;;;;;;28.84;31.22;99040.00;4245234;33;33033;-89
2021/05/01 11:17:04;;;;;;;10.38;5.05;;;;;;;29.57;30.43;99039.31;4310219;27;32825;-94
2021/05/01 11:19:46;;;;;;;7.12;2.97;;;;;;;29.92;31.57;99042.00;4324483;33;32902;-88
2021/05/01 11:22:23;;;;;;;4.87;2.60;;;;;;;28.73;32.10;99033.94;4334115;33;33363;-95
2021/05/01 11:25:09;;;;;;;11.73;3.03;;;;;;;28.82;32.19;99025.63;4332739;33;34124;-96
2021/05/01 11:28:18;;;;;;;7.85;3.70;;;;;;;28.70;32.50;99023.47;4126006;31;20093;-95
2021/05/01 11:30:52;;;;;;;7.12;2.62;;;;;;;28.87;31.54;99028.22;4289361;33;34708;-95
2021/05/01 11:33:47;;;;;;;12.98;3.03;;;;;;;28.64;32.34;99014.47;4274741;33;34555;-95
2021/05/01 11:36:45;;;;;;;7.28;2.50;;;;;;;28.20;32.54;99016.31;4267049;33;33910;-92
2021/05/01 11:39:19;;;;;;;9.20;2.45;;;;;;;27.96;33.12;99011.97;4274767;33;34712;-91
2021/05/01 11:42:02;;;;;;;5.43;2.62;;;;;;;27.84;32.46;99008.97;4285910;33;33570;-96
2021/05/01 11:44:59;;;;;;;11.15;3.58;;;;;;;27.81;33.75;99015.97;4315952;33;33331;-96
2021/05/01 11:47:31;;;;;;;5.35;3.50;;;;;;;27.94;34.24;99017.00;4336759;33;34084;-87
2021/05/01 11:50:12;;;;;;;9.45;3.28;;;;;;;28.06;33.71;99004.53;4323959;33;34046;-86
2021/05/01 11:54:03;;;;;;;8.40;2.87;;;;;;;28.03;33.76;99005.16;4348975;27;34855;-95
2021/05/01 11:56:53;;;;;;;7.68;3.33;;;;;;;28.15;33.19;98997.84;4280073;33;33122;-93
2021/05/01 11:59:28;;;;;;;9.10;3.92;;;;;;;28.50;33.15;98992.38;4261452;33;32216;-96
2021/05/01 12:05:36;;;;;;;4.97;2.45;;;;;;;28.73;33.50;98995.03;4291315;33;33545;-90
2021/05/01 12:08:16;;;;;;;10.32;2.60;;;;;;;28.81;32.04;98987.81;4307443;33;34038;-93
2021/05/01 12:11:11;;;;;;;7.60;3.08;;;;;;;29.49;31.86;98981.69;4294962;33;33871;-93
2021/05/01 12:13:54;;;;;;;5.07;2.22;;;;;;;29.35;32.46;98981.88;4295287;33;34184;-93
2021/05/01 12:16:42;;;;;;;7.22;2.85;;;;;;;29.72;30.77;98980.28;4397088;27;35001;-96
2021/05/01 12:19:28;;;;;;;9.70;2.62;;;;;;;29.78;29.66;98964.22;4312258;33;33864;-94
2021/05/01 12:22:28;;;;;;;2.60;1.40;;;;;;;29.79;30.54;98970.59;4290093;33;32529;-95
2021/05/01 12:25:00;;;;;;;6.93;2.25;;;;;;;29.07;30.74;98965.53;4287854;33;34472;-88
2021/05/01 12:27:58;;;;;;;3.92;1.85;;;;;;;29.08;30.45;98955.25;4270766;33;36702;-96
2021/05/01 12:30:38;;;;;;;4.75;1.60;;;;;;;29.84;31.12;98950.97;4307424;33;32208;-93
2021/05/01 12:33:36;;;;;;;6.47;2.37;;;;;;;29.03;31.99;98948.72;4296214;33;33190;-94
2021/05/01 12:36:48;;;;;;;6.93;2.40;;;;;;;29.41;30.69;98942.41;4308408;33;34188;-96
2021/05/01 12:39:23;;;;;;;7.68;1.83;;;;;;;29.71;29.91;98933.28;4320643;33;34310;-93
2021/05/01 12:41:59;;;;;;;11.57;1.83;;;;;;;29.82;30.42;98922.62;4306817;33;33569;-96
2021/05/01 12:44:53;;;;;;;4.65;1.42;;;;;;;29.39;29.17;98938.34;4263607;33;32992;-95
2021/05/01 12:47:50;;;;;;;4.45;1.42;;;;;;;29.52;30.37;98922.56;4257635;33;34860;-88
2021/05/01 12:50:28;;;;;;;3.80;1.55;;;;;;;29.01;29.76;98931.53;4266544;33;33804;-94
2021/05/01 12:53:28;;;;;;;5.82;1.70;;;;;;;29.72;30.04;98924.59;4264771;33;33546;-93
2021/05/01 12:56:18;;;;;;;7.00;1.58;;;;;;;30.27;28.54;98913.66;4275982;33;32983;-92
2021/05/01 12:59:23;;;;;;;2.90;1.35;;;;;;;30.34;28.73;98908.34;4257892;33;32721;-96
2021/05/01 13:02:25;;;;;;;3.03;1.42;;;;;;;30.10;28.38;98906.22;4264699;33;34755;-96
2021/05/01 13:05:17;;;;;;;4.32;1.90;;;;;;;29.89;29.14;98906.22;4251603;33;36260;-96